createdAt,value
2022-10-12T00:00:41.404Z,58.26
2022-10-12T00:03:09.345Z,58.12
2022-10-12T00:05:36.894Z,58.24
2022-10-12T00:08:04.949Z,58.00
2022-10-12T00:10:32.638Z,58.43
2022-10-12T00:13:00.953Z,58.53
2022-10-12T00:15:30.035Z,58.12
2022-10-12T00:17:58.925Z,58.37
2022-10-12T00:20:26.654Z,58.64
2022-10-12T00:22:55.388Z,58.55
2022-10-12T00:25:22.994Z,58.52
2022-10-12T00:27:50.621Z,58.36
2022-10-12T00:30:18.967Z,58.85
2022-10-12T00:32:48.080Z,58.75
2022-10-12T00:35:15.730Z,58.44
2022-10-12T00:37:43.350Z,58.82
2022-10-12T00:40:13.107Z,58.55
2022-10-12T00:42:40.711Z,58.71
2022-10-12T00:45:10.510Z,58.89
2022-10-12T00:47:40.986Z,58.49
2022-10-12T00:50:15.461Z,58.90
2022-10-12T00:52:48.052Z,58.95
2022-10-12T00:55:20.688Z,58.98
2022-10-12T00:57:51.192Z,59.13
2022-10-12T01:00:20.562Z,58.95
2022-10-12T01:02:50.821Z,59.04
2022-10-12T01:05:21.565Z,58.96
2022-10-12T01:07:49.174Z,59.31
2022-10-12T01:10:17.158Z,59.00
2022-10-12T01:12:47.558Z,58.71
2022-10-12T01:15:15.547Z,59.04
2022-10-12T01:17:53.903Z,59.05
2022-10-12T01:20:41.226Z,58.75
2022-10-12T01:23:30.315Z,59.29
2022-10-12T01:26:13.779Z,59.15
2022-10-12T01:28:55.153Z,59.11
2022-10-12T01:31:32.712Z,59.30
2022-10-12T01:34:08.721Z,58.92
2022-10-12T01:36:40.202Z,59.14
2022-10-12T01:39:16.348Z,58.92
2022-10-12T01:41:48.018Z,59.38
2022-10-12T01:44:21.669Z,59.19
2022-10-12T01:46:51.712Z,59.59
2022-10-12T01:49:25.914Z,59.37
2022-10-12T01:52:08.279Z,59.01
2022-10-12T01:54:48.594Z,59.18
2022-10-12T01:57:24.453Z,59.63
2022-10-12T02:00:04.536Z,59.63
2022-10-12T02:02:40.583Z,59.17
2022-10-12T02:05:15.741Z,59.41
2022-10-12T02:07:50.190Z,59.31
2022-10-12T02:10:28.531Z,59.46
2022-10-12T02:13:07.760Z,59.63
2022-10-12T02:15:40.444Z,59.72
2022-10-12T02:18:21.563Z,59.63
2022-10-12T02:20:58.304Z,59.63
2022-10-12T02:23:33.162Z,59.71
2022-10-12T02:26:12.147Z,59.68
2022-10-12T02:28:42.043Z,59.79
2022-10-12T02:31:29.201Z,59.89
2022-10-12T02:34:07.430Z,60.23
2022-10-12T02:36:40.707Z,59.89
2022-10-12T02:39:19.775Z,60.04
2022-10-12T02:42:01.629Z,60.23
2022-10-12T02:44:35.715Z,59.74
2022-10-12T02:47:11.527Z,59.79
2022-10-12T02:49:43.095Z,60.12
2022-10-12T02:52:11.386Z,60.14
2022-10-12T02:54:39.309Z,60.16
2022-10-12T02:57:07.014Z,60.18
2022-10-12T02:59:34.663Z,60.35
2022-10-12T03:02:02.163Z,60.57
2022-10-12T03:04:29.824Z,59.88
2022-10-12T03:06:59.207Z,59.88
2022-10-12T03:09:26.752Z,60.40
2022-10-12T03:11:54.312Z,60.14
2022-10-12T03:14:22.820Z,60.03
2022-10-12T03:16:50.598Z,60.25
2022-10-12T03:19:18.114Z,60.52
2022-10-12T03:21:45.631Z,60.15
2022-10-12T03:24:14.611Z,60.00
2022-10-12T03:26:42.274Z,60.50
2022-10-12T03:29:10.299Z,60.42
2022-10-12T03:31:37.974Z,60.47
2022-10-12T03:34:05.531Z,60.13
2022-10-12T03:36:33.311Z,60.27
2022-10-12T03:39:01.199Z,60.25
2022-10-12T03:41:30.500Z,60.67
2022-10-12T03:43:58.691Z,60.88
2022-10-12T03:46:26.243Z,60.56
2022-10-12T03:48:53.824Z,60.70
2022-10-12T03:51:21.361Z,60.76
2022-10-12T03:53:48.913Z,60.99
2022-10-12T03:56:16.433Z,60.56
2022-10-12T03:58:45.367Z,60.39
2022-10-12T04:01:12.927Z,60.61
2022-10-12T04:03:40.504Z,60.89
2022-10-12T04:06:08.753Z,60.98
2022-10-12T04:08:36.222Z,60.67
2022-10-12T04:11:03.735Z,60.63
2022-10-12T04:13:32.219Z,60.73
2022-10-12T04:16:04.222Z,60.71
2022-10-12T04:18:31.889Z,60.38
2022-10-12T04:21:00.017Z,60.66
2022-10-12T04:23:27.685Z,61.06
2022-10-12T04:25:55.275Z,61.42
2022-10-12T04:28:22.792Z,61.27
2022-10-12T04:30:50.334Z,61.01
2022-10-12T04:33:19.626Z,60.99
2022-10-12T04:35:47.258Z,61.56
2022-10-12T04:38:15.189Z,60.85
2022-10-12T04:40:42.748Z,61.08
2022-10-12T04:43:10.260Z,61.07
2022-10-12T04:45:37.933Z,60.82
2022-10-12T04:48:05.641Z,61.08
2022-10-12T04:50:34.623Z,61.44
2022-10-12T04:53:02.135Z,61.18
2022-10-12T04:55:30.085Z,60.87
2022-10-12T04:57:57.930Z,60.90
2022-10-12T05:00:25.445Z,60.69
2022-10-12T05:02:52.976Z,60.80
2022-10-12T05:05:20.448Z,61.20
2022-10-12T05:07:49.319Z,61.52
2022-10-12T05:10:17.534Z,61.14
2022-10-12T05:12:45.064Z,61.33
2022-10-12T05:15:12.556Z,60.79
2022-10-12T05:17:40.357Z,61.31
2022-10-12T05:20:09.916Z,61.18
2022-10-12T05:22:37.500Z,61.65
2022-10-12T05:25:07.831Z,61.47
2022-10-12T05:27:35.546Z,60.87
2022-10-12T05:30:04.228Z,61.43
2022-10-12T05:32:31.882Z,61.19
2022-10-12T05:34:59.596Z,61.03
2022-10-12T05:37:27.201Z,61.43
2022-10-12T05:39:54.678Z,61.38
2022-10-12T05:42:23.474Z,61.43
2022-10-12T05:44:50.915Z,60.93
2022-10-12T05:47:18.372Z,61.48
2022-10-12T05:49:45.875Z,61.63
2022-10-12T05:52:13.379Z,61.59
2022-10-12T05:54:40.970Z,61.68
2022-10-12T05:57:08.782Z,61.42
2022-10-12T05:59:37.812Z,61.36
2022-10-12T06:02:05.618Z,61.67
2022-10-12T06:04:33.199Z,61.47
2022-10-12T06:07:00.900Z,61.64
2022-10-12T06:09:28.579Z,61.77
2022-10-12T06:11:56.056Z,61.45
2022-10-12T06:14:23.594Z,61.60
2022-10-12T06:16:54.575Z,61.39
2022-10-12T06:19:22.509Z,62.05
2022-10-12T06:21:50.023Z,61.69
2022-10-12T06:24:17.556Z,61.19
2022-10-12T06:26:45.110Z,61.46
2022-10-12T06:29:13.606Z,61.86
2022-10-12T06:31:41.178Z,61.82
2022-10-12T06:34:10.070Z,61.83
2022-10-12T06:36:37.588Z,61.58
2022-10-12T06:39:05.204Z,61.84
2022-10-12T06:41:33.081Z,62.24
2022-10-12T06:44:00.583Z,62.15
2022-10-12T06:46:28.120Z,62.46
2022-10-12T06:48:55.646Z,61.67
2022-10-12T06:51:24.566Z,62.49
2022-10-12T06:53:55.107Z,62.41
2022-10-12T06:56:23.186Z,62.22
2022-10-12T06:58:55.081Z,62.54
2022-10-12T07:01:22.789Z,62.28
2022-10-12T07:03:50.356Z,62.63
2022-10-12T07:06:18.480Z,62.38
2022-10-12T07:08:48.978Z,62.54
2022-10-12T07:11:16.633Z,62.41
2022-10-12T07:13:44.110Z,62.92
2022-10-12T07:16:11.616Z,63.00
2022-10-12T07:18:40.153Z,62.81
2022-10-12T07:21:08.175Z,63.01
2022-10-12T07:23:39.368Z,63.79
2022-10-12T07:26:11.642Z,63.62
2022-10-12T07:28:39.446Z,64.00
2022-10-12T07:31:09.729Z,63.29
2022-10-12T07:33:39.543Z,63.25
2022-10-12T07:36:20.863Z,63.49
2022-10-12T07:38:49.299Z,63.01
2022-10-12T07:41:18.665Z,63.15
2022-10-12T07:43:46.231Z,63.19
2022-10-12T07:46:13.885Z,63.28
2022-10-12T07:48:47.246Z,63.14
2022-10-12T07:51:17.415Z,62.78
2022-10-12T07:53:45.381Z,63.02
2022-10-12T07:56:16.060Z,63.11
2022-10-12T07:58:49.368Z,62.77
2022-10-12T08:01:17.544Z,62.23
2022-10-12T08:03:45.589Z,63.11
2022-10-12T08:06:15.594Z,62.84
2022-10-12T08:08:43.711Z,62.74
2022-10-12T08:11:12.934Z,62.85
2022-10-12T08:13:41.288Z,62.70
2022-10-12T08:16:12.623Z,62.30
2022-10-12T08:18:40.511Z,63.09
2022-10-12T08:21:09.352Z,62.76
2022-10-12T08:23:37.902Z,62.30
2022-10-12T08:26:06.146Z,62.24
2022-10-12T08:28:35.239Z,63.03
2022-10-12T08:31:09.249Z,62.16
2022-10-12T08:33:46.490Z,62.71
2022-10-12T08:36:17.541Z,62.58
2022-10-12T08:38:55.598Z,62.24
2022-10-12T08:41:40.332Z,62.59
2022-10-12T08:44:23.362Z,62.38
2022-10-12T08:46:55.801Z,62.70
2022-10-12T08:49:28.865Z,62.28
2022-10-12T08:52:00.303Z,62.75
2022-10-12T08:54:33.355Z,62.52
2022-10-12T08:57:01.267Z,62.78
2022-10-12T08:59:30.933Z,62.91
2022-10-12T09:02:08.609Z,62.39
2022-10-12T09:04:49.250Z,62.47
2022-10-12T09:07:21.709Z,62.51
2022-10-12T09:10:01.260Z,61.79
2022-10-12T09:12:46.991Z,62.09
2022-10-12T09:15:19.376Z,62.34
2022-10-12T09:17:50.271Z,62.44
2022-10-12T09:20:22.157Z,61.65
2022-10-12T09:22:58.139Z,62.50
2022-10-12T09:25:28.532Z,62.32
2022-10-12T09:28:09.590Z,62.00
2022-10-12T09:30:46.593Z,62.21
2022-10-12T09:33:22.653Z,62.37
2022-10-12T09:35:54.465Z,62.52
2022-10-12T09:38:24.537Z,61.87
2022-10-12T09:40:52.317Z,62.17
2022-10-12T09:43:20.264Z,62.11
2022-10-12T09:45:49.692Z,61.95
2022-10-12T09:48:22.248Z,61.94
2022-10-12T09:50:58.065Z,61.54
2022-10-12T09:53:36.452Z,61.43
2022-10-12T09:56:16.942Z,60.94
2022-10-12T09:58:55.410Z,61.71
2022-10-12T10:01:36.479Z,61.08
2022-10-12T10:04:18.177Z,61.93
2022-10-12T10:06:48.259Z,61.81
2022-10-12T10:09:32.499Z,59.84
2022-10-12T10:12:13.640Z,57.96
2022-10-12T10:14:44.466Z,57.73
2022-10-12T10:17:16.600Z,57.39
2022-10-12T10:19:50.504Z,56.33
2022-10-12T10:22:20.114Z,55.58
2022-10-12T10:24:55.227Z,56.51
2022-10-12T10:27:32.884Z,55.61
2022-10-12T10:30:35.102Z,55.22
2022-10-12T10:33:19.081Z,54.58
2022-10-12T10:35:59.846Z,54.08
2022-10-12T10:38:32.589Z,54.20
2022-10-12T10:41:07.641Z,53.82
2022-10-12T10:43:35.926Z,52.01
2022-10-12T10:46:04.799Z,52.22
2022-10-12T10:48:41.371Z,51.83
2022-10-12T10:51:08.855Z,50.38
2022-10-12T10:53:47.373Z,49.66
2022-10-12T10:56:21.236Z,48.71
2022-10-12T10:58:51.440Z,47.83
2022-10-12T11:01:23.748Z,47.43
2022-10-12T11:03:58.396Z,47.13
2022-10-12T11:06:36.648Z,46.86
2022-10-12T11:09:11.963Z,46.12
2022-10-12T11:11:42.678Z,45.78
2022-10-12T11:14:16.945Z,45.27
2022-10-12T11:16:50.274Z,44.56
2022-10-12T11:19:26.331Z,43.98
2022-10-12T11:21:57.554Z,43.03
2022-10-12T11:24:30.370Z,42.81
2022-10-12T11:27:03.814Z,41.96
2022-10-12T11:29:31.971Z,41.51
2022-10-12T11:32:04.102Z,41.41
2022-10-12T11:34:44.821Z,41.49
2022-10-12T11:37:21.273Z,40.52
2022-10-12T11:39:53.825Z,39.73
2022-10-12T11:42:30.078Z,39.35
2022-10-12T11:45:00.332Z,38.06
2022-10-12T11:47:35.815Z,37.92
2022-10-12T11:50:08.747Z,37.77
2022-10-12T11:52:40.896Z,36.79
2022-10-12T11:55:27.742Z,35.06
2022-10-12T11:57:57.704Z,35.30
2022-10-12T12:00:32.673Z,35.88
2022-10-12T12:03:15.070Z,36.45
2022-10-12T12:05:42.730Z,35.00
2022-10-12T12:08:22.142Z,36.80
2022-10-12T12:11:08.121Z,35.97
2022-10-12T12:13:35.585Z,33.86
2022-10-12T12:16:32.687Z,34.69
2022-10-12T12:19:43.056Z,35.38
2022-10-12T12:22:26.417Z,33.74
2022-10-12T12:24:57.750Z,32.90
2022-10-12T12:27:32.746Z,34.78
2022-10-12T12:30:02.531Z,33.75
2022-10-12T12:32:44.163Z,33.15
2022-10-12T12:35:24.986Z,35.09
2022-10-12T12:38:03.825Z,34.48
2022-10-12T12:40:31.831Z,32.63
2022-10-12T12:43:36.973Z,34.19
2022-10-12T12:46:06.367Z,32.96
2022-10-12T12:48:57.953Z,34.01
2022-10-12T12:51:35.201Z,33.14
2022-10-12T12:54:05.849Z,32.82
2022-10-12T12:56:40.999Z,33.43
2022-10-12T12:59:35.354Z,33.50
2022-10-12T13:02:29.785Z,33.75
2022-10-12T13:05:24.558Z,33.91
2022-10-12T13:08:18.557Z,34.47
2022-10-12T13:11:01.974Z,32.76
2022-10-12T13:13:47.973Z,32.83
2022-10-12T13:17:23.838Z,33.27
2022-10-12T13:19:28.018Z,33.80
2022-10-12T13:21:57.614Z,32.59
2022-10-12T13:24:28.805Z,32.19
2022-10-12T13:27:01.492Z,32.46
2022-10-12T13:29:37.448Z,33.52
2022-10-12T13:32:16.883Z,33.53
2022-10-12T13:34:49.060Z,33.55
2022-10-12T13:37:18.213Z,33.74
2022-10-12T13:39:47.212Z,33.17
2022-10-12T13:42:26.357Z,33.96
2022-10-12T13:44:54.892Z,33.54
2022-10-12T13:47:26.198Z,33.95
2022-10-12T13:49:54.254Z,34.22
2022-10-12T13:52:31.668Z,34.44
2022-10-12T13:55:00.577Z,34.19
2022-10-12T13:57:33.684Z,34.67
2022-10-12T14:00:03.681Z,34.75
2022-10-12T14:02:34.263Z,34.81
2022-10-12T14:05:05.164Z,34.98
2022-10-12T14:07:35.599Z,35.03
2022-10-12T14:10:07.116Z,35.20
2022-10-12T14:12:36.769Z,34.90
2022-10-12T14:15:06.599Z,35.38
2022-10-12T14:17:44.484Z,35.71
2022-10-12T14:20:28.867Z,35.54
2022-10-12T14:22:58.665Z,35.97
2022-10-12T14:25:29.137Z,36.19
2022-10-12T14:27:59.030Z,36.18
2022-10-12T14:30:31.007Z,36.44
2022-10-12T14:33:12.866Z,36.71
2022-10-12T14:35:42.182Z,36.81
2022-10-12T14:38:37.639Z,36.98
2022-10-12T14:41:35.685Z,36.97
2022-10-12T14:44:14.442Z,37.13
2022-10-12T14:46:51.798Z,37.46
2022-10-12T14:49:23.938Z,37.50
2022-10-12T14:51:53.924Z,37.50
2022-10-12T14:54:22.733Z,37.73
2022-10-12T14:56:54.747Z,37.93
2022-10-12T14:59:23.245Z,38.35
2022-10-12T15:01:53.448Z,38.32
2022-10-12T15:04:22.893Z,38.42
2022-10-12T15:06:53.893Z,38.62
2022-10-12T15:09:30.166Z,38.81
2022-10-12T15:11:59.570Z,38.77
2022-10-12T15:14:32.050Z,39.01
2022-10-12T15:17:04.819Z,39.08
2022-10-12T15:19:40.475Z,39.17
2022-10-12T15:22:18.978Z,39.28
2022-10-12T15:24:49.218Z,39.42
2022-10-12T15:27:22.417Z,39.49
2022-10-12T15:29:54.951Z,39.58
2022-10-12T15:32:26.574Z,39.71
2022-10-12T15:35:09.095Z,39.57
2022-10-12T15:37:43.958Z,40.00
2022-10-12T15:40:19.118Z,39.92
2022-10-12T15:42:53.469Z,40.09
2022-10-12T15:45:28.387Z,40.18
2022-10-12T15:48:02.097Z,40.50
2022-10-12T15:50:42.403Z,40.62
2022-10-12T15:53:20.604Z,40.54
2022-10-12T15:55:55.187Z,40.74
2022-10-12T15:58:23.617Z,40.75
2022-10-12T16:00:57.568Z,40.88
2022-10-12T16:03:31.307Z,40.90
2022-10-12T16:06:04.916Z,41.64
2022-10-12T16:08:36.902Z,41.12
2022-10-12T16:11:06.359Z,41.33
2022-10-12T16:13:46.816Z,41.36
2022-10-12T16:16:17.467Z,41.77
2022-10-12T16:18:52.266Z,41.72
2022-10-12T16:21:25.306Z,41.77
2022-10-12T16:23:54.048Z,41.98
2022-10-12T16:26:24.732Z,41.79
2022-10-12T16:28:52.913Z,42.17
2022-10-12T16:31:21.489Z,42.35
2022-10-12T16:33:52.536Z,42.23
2022-10-12T16:36:21.627Z,42.40
2022-10-12T16:38:54.479Z,42.57
2022-10-12T16:41:29.225Z,42.74
2022-10-12T16:44:02.169Z,42.58
2022-10-12T16:46:33.472Z,43.00
2022-10-12T16:49:04.673Z,42.72
2022-10-12T16:51:35.951Z,42.94
2022-10-12T16:54:10.240Z,42.72
2022-10-12T16:56:47.709Z,42.95
2022-10-12T16:59:20.381Z,43.17
2022-10-12T17:01:48.467Z,43.19
2022-10-12T17:04:16.604Z,43.76
2022-10-12T17:06:48.232Z,43.80
2022-10-12T17:09:20.930Z,43.92
2022-10-12T17:11:51.688Z,44.12
2022-10-12T17:14:20.055Z,44.10
2022-10-12T17:16:52.331Z,44.20
2022-10-12T17:19:22.419Z,44.35
2022-10-12T17:21:54.047Z,44.44
2022-10-12T17:24:32.016Z,44.34
2022-10-12T17:27:06.985Z,44.69
2022-10-12T17:29:36.870Z,44.85
2022-10-12T17:32:05.966Z,45.06
2022-10-12T17:34:43.655Z,44.87
2022-10-12T17:37:16.539Z,45.28
2022-10-12T17:39:48.359Z,45.21
2022-10-12T17:42:20.734Z,45.36
2022-10-12T17:44:50.976Z,45.53
2022-10-12T17:47:20.105Z,45.58
2022-10-12T17:50:01.763Z,45.59
2022-10-12T17:52:31.637Z,45.84
2022-10-12T17:55:01.059Z,45.96
2022-10-12T17:57:29.001Z,46.11
2022-10-12T17:59:56.569Z,46.24
2022-10-12T18:02:24.195Z,46.48
2022-10-12T18:04:51.787Z,46.46
2022-10-12T18:07:19.885Z,46.49
2022-10-12T18:09:47.764Z,46.97
2022-10-12T18:12:16.986Z,47.03
2022-10-12T18:14:44.822Z,46.91
2022-10-12T18:17:12.366Z,47.16
2022-10-12T18:19:39.899Z,47.23
2022-10-12T18:22:07.402Z,47.53
2022-10-12T18:24:34.973Z,47.83
2022-10-12T18:27:02.487Z,47.66
2022-10-12T18:29:31.351Z,47.86
2022-10-12T18:31:59.221Z,48.05
2022-10-12T18:34:26.810Z,48.06
2022-10-12T18:36:54.437Z,48.15
2022-10-12T18:39:21.917Z,48.59
2022-10-12T18:41:51.455Z,48.46
2022-10-12T18:44:21.064Z,48.74
2022-10-12T18:46:49.952Z,48.45
2022-10-12T18:49:17.384Z,49.01
2022-10-12T18:51:47.860Z,48.88
2022-10-12T18:54:17.045Z,49.11
2022-10-12T18:56:45.347Z,49.11
2022-10-12T18:59:17.439Z,49.43
2022-10-12T19:01:45.942Z,49.44
2022-10-12T19:04:14.779Z,49.76
2022-10-12T19:06:43.369Z,49.39
2022-10-12T19:09:12.952Z,50.03
2022-10-12T19:11:40.572Z,50.07
2022-10-12T19:14:11.270Z,49.82
2022-10-12T19:16:38.789Z,50.28
2022-10-12T19:19:14.867Z,49.94
2022-10-12T19:21:47.253Z,50.37
2022-10-12T19:24:16.310Z,50.64
2022-10-12T19:26:44.570Z,50.83
2022-10-12T19:29:12.476Z,50.96
2022-10-12T19:31:43.164Z,51.40
2022-10-12T19:34:13.813Z,50.69
2022-10-12T19:36:42.284Z,51.09
2022-10-12T19:39:15.098Z,51.29
2022-10-12T19:41:42.748Z,51.14
2022-10-12T19:44:12.517Z,51.00
2022-10-12T19:46:41.175Z,51.46
2022-10-12T19:49:08.787Z,51.32
2022-10-12T19:51:36.584Z,51.35
2022-10-12T19:54:05.126Z,51.77
2022-10-12T19:56:34.852Z,51.57
2022-10-12T19:59:02.716Z,51.97
2022-10-12T20:01:33.395Z,51.82
2022-10-12T20:04:01.509Z,51.87
2022-10-12T20:06:31.017Z,51.71
2022-10-12T20:09:01.507Z,52.38
2022-10-12T20:11:29.893Z,51.78
2022-10-12T20:13:58.919Z,52.33
2022-10-12T20:16:30.070Z,51.91
2022-10-12T20:19:02.163Z,52.54
2022-10-12T20:21:29.697Z,52.34
2022-10-12T20:23:57.239Z,52.53
2022-10-12T20:26:26.282Z,52.28
2022-10-12T20:28:54.816Z,52.38
2022-10-12T20:31:24.820Z,52.79
2022-10-12T20:33:53.645Z,52.55
2022-10-12T20:36:23.720Z,52.72
2022-10-12T20:38:52.329Z,52.47
2022-10-12T20:41:21.717Z,52.88
2022-10-12T20:43:49.642Z,52.42
2022-10-12T20:46:19.360Z,52.52
2022-10-12T20:48:48.496Z,53.28
2022-10-12T20:51:20.561Z,52.66
2022-10-12T20:53:48.493Z,53.07
2022-10-12T20:56:16.060Z,53.34
2022-10-12T20:58:43.603Z,53.20
2022-10-12T21:01:13.585Z,52.65
2022-10-12T21:03:42.201Z,52.91
2022-10-12T21:06:13.126Z,52.70
2022-10-12T21:08:41.118Z,53.32
2022-10-12T21:11:10.424Z,53.38
2022-10-12T21:13:41.670Z,53.43
2022-10-12T21:16:10.044Z,53.47
2022-10-12T21:18:38.635Z,53.36
2022-10-12T21:21:11.535Z,53.21
2022-10-12T21:23:41.183Z,53.50
2022-10-12T21:26:13.193Z,53.83
2022-10-12T21:28:41.280Z,54.16
2022-10-12T21:31:09.243Z,53.57
2022-10-12T21:33:37.733Z,53.76
2022-10-12T21:36:10.789Z,53.49
2022-10-12T21:38:40.425Z,53.44
2022-10-12T21:41:09.298Z,54.25
2022-10-12T21:43:37.694Z,54.29
2022-10-12T21:46:07.004Z,54.06
2022-10-12T21:48:35.260Z,53.91
2022-10-12T21:51:04.027Z,54.38
2022-10-12T21:53:32.152Z,54.61
2022-10-12T21:56:06.504Z,53.97
2022-10-12T21:58:34.131Z,54.01
2022-10-12T22:01:08.036Z,54.35
2022-10-12T22:03:35.662Z,53.86
2022-10-12T22:06:04.050Z,54.12
2022-10-12T22:08:31.822Z,54.81
2022-10-12T22:11:06.381Z,54.59
2022-10-12T22:13:34.419Z,54.78
2022-10-12T22:16:34.623Z,54.40
2022-10-12T22:19:04.328Z,54.40
2022-10-12T22:21:35.299Z,54.93
2022-10-12T22:24:03.007Z,54.81
2022-10-12T22:26:33.565Z,55.02
2022-10-12T22:29:03.119Z,54.69
2022-10-12T22:31:32.861Z,54.65
2022-10-12T22:34:00.650Z,54.95
2022-10-12T22:36:31.435Z,55.02
2022-10-12T22:38:59.222Z,54.94
2022-10-12T22:41:26.817Z,55.60
2022-10-12T22:43:56.929Z,55.43
2022-10-12T22:46:26.909Z,55.42
2022-10-12T22:48:54.903Z,55.54
2022-10-12T22:51:32.350Z,56.06
2022-10-12T22:54:00.846Z,55.68
2022-10-12T22:56:29.146Z,56.19
2022-10-12T22:59:00.321Z,56.14
2022-10-12T23:01:28.872Z,56.35
2022-10-12T23:03:57.367Z,56.22
2022-10-12T23:06:25.981Z,55.97
2022-10-12T23:08:55.449Z,56.35
2022-10-12T23:11:25.630Z,56.46
2022-10-12T23:13:55.854Z,56.38
2022-10-12T23:16:29.051Z,56.09
2022-10-12T23:18:59.469Z,55.96
2022-10-12T23:21:28.811Z,56.26
2022-10-12T23:23:56.713Z,56.51
2022-10-12T23:26:26.057Z,56.34
2022-10-12T23:28:54.852Z,56.44
2022-10-12T23:31:25.789Z,56.56
2022-10-12T23:33:55.888Z,56.59
2022-10-12T23:36:23.341Z,56.09
2022-10-12T23:38:50.801Z,56.54
2022-10-12T23:41:18.358Z,56.71
2022-10-12T23:43:45.846Z,56.44
2022-10-12T23:46:13.966Z,56.84
2022-10-12T23:48:42.730Z,56.67
2022-10-12T23:51:11.334Z,56.56
2022-10-12T23:53:39.381Z,56.52
2022-10-12T23:56:07.865Z,56.62
2022-10-12T23:58:35.543Z,56.32
